createdAt,value
2023-03-23T00:00:01.753Z, 48.50
2023-03-23T00:01:01.748Z, 48.42
2023-03-23T00:02:01.750Z, 48.36
2023-03-23T00:03:01.773Z, 48.34
2023-03-23T00:04:01.767Z, 48.31
2023-03-23T00:05:01.826Z, 48.27
2023-03-23T00:06:01.831Z, 48.22
2023-03-23T00:07:01.889Z, 48.20
2023-03-23T00:08:01.833Z, 48.18
2023-03-23T00:09:01.868Z, 48.11
2023-03-23T00:10:01.894Z, 48.11
2023-03-23T00:11:01.851Z, 48.03
2023-03-23T00:12:01.870Z, 48.02
2023-03-23T00:13:01.892Z, 48.10
2023-03-23T00:14:01.926Z, 48.02
2023-03-23T00:15:01.901Z, 48.03
2023-03-23T00:16:04.255Z, 48.06
2023-03-23T00:17:01.966Z, 47.95
2023-03-23T00:18:01.984Z, 47.99
2023-03-23T00:19:02.005Z, 47.95
2023-03-23T00:20:01.983Z, 47.97
2023-03-23T00:21:01.998Z, 47.90
2023-03-23T00:22:02.007Z, 47.83
2023-03-23T00:23:02.087Z, 47.78
2023-03-23T00:24:02.069Z, 47.80
2023-03-23T00:25:02.152Z, 47.79
2023-03-23T00:26:02.101Z, 47.72
2023-03-23T00:27:02.118Z, 47.68
2023-03-23T00:28:02.103Z, 47.70
2023-03-23T00:29:02.138Z, 47.70
2023-03-23T00:30:02.111Z, 47.62
2023-03-23T00:31:02.128Z, 47.62
2023-03-23T00:32:02.116Z, 47.62
2023-03-23T00:33:02.197Z, 47.52
2023-03-23T00:34:02.184Z, 47.46
2023-03-23T00:35:02.212Z, 47.44
2023-03-23T00:36:02.227Z, 47.49
2023-03-23T00:37:02.190Z, 47.48
2023-03-23T00:38:02.195Z, 47.52
2023-03-23T00:39:02.227Z, 47.43
2023-03-23T00:40:02.232Z, 47.39
2023-03-23T00:41:02.246Z, 47.39
2023-03-23T00:42:02.271Z, 47.29
2023-03-23T00:43:02.262Z, 47.31
2023-03-23T00:44:02.338Z, 47.28
2023-03-23T00:45:02.311Z, 47.34
2023-03-23T00:46:02.372Z, 47.30
2023-03-23T00:47:02.343Z, 47.26
2023-03-23T00:48:02.342Z, 47.25
2023-03-23T00:49:02.410Z, 47.12
2023-03-23T00:50:02.360Z, 47.07
2023-03-23T00:51:02.414Z, 47.05
2023-03-23T00:52:02.395Z, 47.02
2023-03-23T00:53:02.394Z, 46.92
2023-03-23T00:54:02.404Z, 46.81
2023-03-23T00:55:02.397Z, 46.75
2023-03-23T00:56:02.482Z, 46.81
2023-03-23T00:57:02.461Z, 46.71
2023-03-23T00:58:02.491Z, 46.68
2023-03-23T00:59:02.484Z, 46.75
2023-03-23T01:00:06.137Z, 46.74
2023-03-23T01:01:02.500Z, 46.75
2023-03-23T01:02:02.586Z, 46.68
2023-03-23T01:03:02.533Z, 46.69
2023-03-23T01:04:02.577Z, 46.69
2023-03-23T01:05:02.530Z, 46.68
2023-03-23T01:06:02.551Z, 46.67
2023-03-23T01:07:02.612Z, 46.60
2023-03-23T01:08:02.599Z, 46.53
2023-03-23T01:09:02.683Z, 46.53
2023-03-23T01:10:02.631Z, 46.56
2023-03-23T01:11:02.613Z, 46.52
2023-03-23T01:12:02.658Z, 46.50
2023-03-23T01:13:02.635Z, 46.47
2023-03-23T01:14:02.719Z, 46.40
2023-03-23T01:15:02.691Z, 46.52
2023-03-23T01:16:03.100Z, 46.40
2023-03-23T01:17:02.729Z, 46.32
2023-03-23T01:18:02.711Z, 46.35
2023-03-23T01:19:02.741Z, 46.35
2023-03-23T01:20:02.712Z, 46.30
2023-03-23T01:21:02.805Z, 46.22
2023-03-23T01:22:02.761Z, 46.19
2023-03-23T01:23:02.812Z, 46.17
2023-03-23T01:24:02.787Z, 46.18
2023-03-23T01:25:02.772Z, 46.16
2023-03-23T01:26:02.783Z, 46.10
2023-03-23T01:27:02.795Z, 46.10
2023-03-23T01:28:02.792Z, 46.06
2023-03-23T01:29:02.829Z, 45.98
2023-03-23T01:30:02.880Z, 45.96
2023-03-23T01:31:02.837Z, 45.97
2023-03-23T01:32:02.858Z, 45.96
2023-03-23T01:33:02.859Z, 45.91
2023-03-23T01:34:02.880Z, 45.91
2023-03-23T01:35:02.886Z, 45.90
2023-03-23T01:36:02.957Z, 45.76
2023-03-23T01:37:02.985Z, 45.75
2023-03-23T01:38:02.966Z, 45.83
2023-03-23T01:39:03.010Z, 45.81
2023-03-23T01:40:03.005Z, 45.80
2023-03-23T01:41:03.006Z, 45.76
2023-03-23T01:42:02.989Z, 45.70
2023-03-23T01:43:03.020Z, 45.61
2023-03-23T01:44:03.024Z, 45.68
2023-03-23T01:45:03.021Z, 45.67
2023-03-23T01:46:03.066Z, 45.68
2023-03-23T01:47:03.059Z, 45.60
2023-03-23T01:48:03.084Z, 45.53
2023-03-23T01:49:03.088Z, 45.58
2023-03-23T01:50:03.082Z, 45.55
2023-03-23T01:51:03.085Z, 45.46
2023-03-23T01:52:03.084Z, 45.47
2023-03-23T01:53:03.095Z, 45.42
2023-03-23T01:54:03.116Z, 45.46
2023-03-23T01:55:03.137Z, 45.46
2023-03-23T01:56:03.138Z, 45.45
2023-03-23T01:57:03.221Z, 45.38
2023-03-23T01:58:03.191Z, 45.36
2023-03-23T01:59:03.223Z, 45.37
2023-03-23T02:00:03.199Z, 45.37
2023-03-23T02:01:03.261Z, 45.34
2023-03-23T02:02:03.254Z, 45.32
2023-03-23T02:03:03.280Z, 45.29
2023-03-23T02:04:03.279Z, 45.25
2023-03-23T02:05:03.299Z, 45.25
2023-03-23T02:06:03.300Z, 45.25
2023-03-23T02:07:03.296Z, 45.21
2023-03-23T02:08:03.325Z, 45.10
2023-03-23T02:09:10.598Z, 45.14
2023-03-23T02:10:03.328Z, 45.19
2023-03-23T02:11:03.333Z, 45.13
2023-03-23T02:12:03.356Z, 45.13
2023-03-23T02:13:03.364Z, 45.07
2023-03-23T02:14:03.478Z, 45.13
2023-03-23T02:15:03.416Z, 45.13
2023-03-23T02:16:03.453Z, 45.06
2023-03-23T02:17:03.425Z, 45.08
2023-03-23T02:18:03.501Z, 45.00
2023-03-23T02:19:03.495Z, 44.90
2023-03-23T02:20:03.506Z, 44.91
2023-03-23T02:21:03.488Z, 44.82
2023-03-23T02:22:03.530Z, 44.83
2023-03-23T02:23:03.497Z, 44.73
2023-03-23T02:24:03.528Z, 44.70
2023-03-23T02:25:03.513Z, 44.75
2023-03-23T02:26:03.509Z, 44.75
2023-03-23T02:27:03.515Z, 44.73
2023-03-23T02:28:03.524Z, 44.72
2023-03-23T02:29:03.586Z, 44.73
2023-03-23T02:30:03.566Z, 44.71
2023-03-23T02:31:03.650Z, 44.64
2023-03-23T02:32:03.660Z, 44.59
2023-03-23T02:33:03.645Z, 44.63
2023-03-23T02:34:03.641Z, 44.61
2023-03-23T02:35:03.698Z, 44.60
2023-03-23T02:36:03.704Z, 44.57
2023-03-23T02:37:03.708Z, 44.57
2023-03-23T02:38:03.690Z, 44.60
2023-03-23T02:39:03.691Z, 44.53
2023-03-23T02:40:03.742Z, 44.54
2023-03-23T02:41:03.739Z, 44.50
2023-03-23T02:42:03.862Z, 44.52
2023-03-23T02:43:03.754Z, 44.48
2023-03-23T02:44:03.777Z, 44.47
2023-03-23T02:45:03.750Z, 44.47
2023-03-23T02:46:03.790Z, 44.40
2023-03-23T02:47:03.760Z, 44.36
2023-03-23T02:48:03.775Z, 44.33
2023-03-23T02:49:03.830Z, 44.40
2023-03-23T02:50:03.774Z, 44.33
2023-03-23T02:51:03.875Z, 44.25
2023-03-23T02:52:03.837Z, 44.28
2023-03-23T02:53:03.925Z, 44.26
2023-03-23T02:54:03.878Z, 44.30
2023-03-23T02:55:03.907Z, 44.22
2023-03-23T02:56:03.897Z, 44.23
2023-03-23T02:57:03.939Z, 44.17
2023-03-23T02:58:03.921Z, 44.15
2023-03-23T02:59:03.921Z, 44.13
2023-03-23T03:00:03.964Z, 44.11
2023-03-23T03:01:03.933Z, 44.05
2023-03-23T03:02:04.009Z, 44.01
2023-03-23T03:03:03.985Z, 43.96
2023-03-23T03:04:04.034Z, 43.91
2023-03-23T03:05:04.003Z, 43.91
2023-03-23T03:06:04.042Z, 43.96
2023-03-23T03:07:04.033Z, 43.97
2023-03-23T03:08:04.039Z, 43.91
2023-03-23T03:09:04.045Z, 43.95
2023-03-23T03:10:04.098Z, 43.89
2023-03-23T03:11:04.074Z, 43.87
2023-03-23T03:12:04.097Z, 43.89
2023-03-23T03:13:04.089Z, 43.86
2023-03-23T03:14:04.125Z, 43.86
2023-03-23T03:15:04.089Z, 43.81
2023-03-23T03:16:04.095Z, 43.75
2023-03-23T03:17:04.128Z, 43.75
2023-03-23T03:18:04.142Z, 43.70
2023-03-23T03:19:04.216Z, 43.66
2023-03-23T03:20:04.167Z, 43.67
2023-03-23T03:21:04.226Z, 43.66
2023-03-23T03:22:04.231Z, 43.63
2023-03-23T03:23:04.209Z, 43.62
2023-03-23T03:24:04.256Z, 43.63
2023-03-23T03:25:17.851Z, 43.57
2023-03-23T03:26:04.319Z, 43.50
2023-03-23T03:27:04.282Z, 43.48
2023-03-23T03:28:04.300Z, 43.48
2023-03-23T03:29:04.297Z, 43.47
2023-03-23T03:30:04.319Z, 43.46
2023-03-23T03:31:04.387Z, 43.41
2023-03-23T03:32:04.344Z, 43.41
2023-03-23T03:33:04.401Z, 43.41
2023-03-23T03:34:04.383Z, 43.43
2023-03-23T03:35:04.429Z, 43.38
2023-03-23T03:36:04.474Z, 43.36
2023-03-23T03:37:04.399Z, 43.35
2023-03-23T03:38:04.400Z, 43.30
2023-03-23T03:39:04.405Z, 43.35
2023-03-23T03:40:04.402Z, 43.29
2023-03-23T03:41:04.409Z, 43.24
2023-03-23T03:42:04.480Z, 43.18
2023-03-23T03:43:04.478Z, 43.21
2023-03-23T03:44:04.475Z, 43.18
2023-03-23T03:45:04.530Z, 43.13
2023-03-23T03:46:04.507Z, 43.10
2023-03-23T03:47:04.571Z, 43.06
2023-03-23T03:48:04.556Z, 43.09
2023-03-23T03:49:04.609Z, 43.09
2023-03-23T03:50:04.586Z, 43.10
2023-03-23T03:51:04.700Z, 43.07
2023-03-23T03:52:04.595Z, 43.04
2023-03-23T03:53:04.593Z, 42.99
2023-03-23T03:54:04.657Z, 43.00
2023-03-23T03:55:04.630Z, 42.98
2023-03-23T03:56:04.670Z, 42.96
2023-03-23T03:57:04.651Z, 42.93
2023-03-23T03:58:04.687Z, 42.99
2023-03-23T03:59:21.305Z, 42.94
2023-03-23T04:00:04.666Z, 42.95
2023-03-23T04:01:04.666Z, 42.94
2023-03-23T04:02:04.668Z, 42.86
2023-03-23T04:03:04.724Z, 42.88
2023-03-23T04:04:05.008Z, 42.82
2023-03-23T04:05:04.781Z, 42.79
2023-03-23T04:06:04.752Z, 42.81
2023-03-23T04:07:04.760Z, 42.76
2023-03-23T04:08:09.766Z, 42.72
2023-03-23T04:09:08.290Z, 42.71
2023-03-23T04:10:04.865Z, 42.72
2023-03-23T04:11:04.836Z, 42.70
2023-03-23T04:12:04.866Z, 42.70
2023-03-23T04:13:04.836Z, 42.65
2023-03-23T04:14:04.847Z, 42.62
2023-03-23T04:15:06.349Z, 42.65
2023-03-23T04:16:10.177Z, 42.65
2023-03-23T04:17:04.877Z, 42.56
2023-03-23T04:18:04.887Z, 42.57
2023-03-23T04:19:04.973Z, 42.54
2023-03-23T04:20:04.935Z, 42.54
2023-03-23T04:21:05.040Z, 42.47
2023-03-23T04:22:05.015Z, 42.41
2023-03-23T04:23:05.021Z, 42.46
2023-03-23T04:24:05.021Z, 42.40
2023-03-23T04:25:05.081Z, 42.46
2023-03-23T04:26:05.005Z, 42.41
2023-03-23T04:27:05.025Z, 42.44
2023-03-23T04:28:05.039Z, 42.42
2023-03-23T04:29:05.046Z, 42.44
2023-03-23T04:30:05.024Z, 42.43
2023-03-23T04:31:05.079Z, 42.55
2023-03-23T04:32:05.070Z, 43.75
2023-03-23T04:33:05.064Z, 44.50
2023-03-23T04:34:05.148Z, 44.71
2023-03-23T04:35:12.959Z, 44.73
2023-03-23T04:36:05.120Z, 44.71
2023-03-23T04:37:05.112Z, 44.71
2023-03-23T04:38:05.129Z, 44.71
2023-03-23T04:39:05.159Z, 44.68
2023-03-23T04:40:05.157Z, 44.69
2023-03-23T04:41:05.166Z, 44.73
2023-03-23T04:42:05.177Z, 44.74
2023-03-23T04:43:05.273Z, 44.77
2023-03-23T04:44:05.249Z, 44.77
2023-03-23T04:45:05.306Z, 44.71
2023-03-23T04:46:05.308Z, 44.71
2023-03-23T04:47:05.276Z, 44.66
2023-03-23T04:48:05.315Z, 44.62
2023-03-23T04:49:05.301Z, 44.53
2023-03-23T04:50:05.364Z, 44.49
2023-03-23T04:51:05.353Z, 44.46
2023-03-23T04:52:05.385Z, 44.44
2023-03-23T04:53:05.381Z, 44.41
2023-03-23T04:54:05.387Z, 44.41
2023-03-23T04:55:05.375Z, 44.36
2023-03-23T04:56:05.418Z, 44.36
2023-03-23T04:57:05.398Z, 44.33
2023-03-23T04:58:05.398Z, 44.31
2023-03-23T04:59:05.406Z, 44.28
2023-03-23T05:00:05.397Z, 44.30
2023-03-23T05:01:05.413Z, 44.29
2023-03-23T05:02:13.851Z, 44.29
2023-03-23T05:03:05.521Z, 44.28
2023-03-23T05:04:05.508Z, 44.28
2023-03-23T05:05:05.499Z, 44.27
2023-03-23T05:06:05.497Z, 44.20
2023-03-23T05:07:05.504Z, 44.22
2023-03-23T05:08:05.508Z, 44.25
2023-03-23T05:09:05.540Z, 44.25
2023-03-23T05:10:05.556Z, 44.32
2023-03-23T05:11:05.562Z, 44.45
2023-03-23T05:12:05.634Z, 44.52
2023-03-23T05:13:05.618Z, 44.57
2023-03-23T05:14:05.661Z, 44.59
2023-03-23T05:15:05.631Z, 44.57
2023-03-23T05:16:05.664Z, 44.56
2023-03-23T05:17:05.697Z, 44.56
2023-03-23T05:18:05.642Z, 44.48
2023-03-23T05:19:05.653Z, 44.47
2023-03-23T05:20:05.722Z, 44.42
2023-03-23T05:21:05.746Z, 44.37
2023-03-23T05:22:05.733Z, 44.32
2023-03-23T05:23:05.755Z, 44.28
2023-03-23T05:24:05.751Z, 44.22
2023-03-23T05:25:05.727Z, 44.18
2023-03-23T05:26:05.764Z, 44.10
2023-03-23T05:27:05.746Z, 44.04
2023-03-23T05:28:05.768Z, 43.92
2023-03-23T05:29:05.775Z, 43.90
2023-03-23T05:30:05.827Z, 43.85
2023-03-23T05:31:05.858Z, 43.73
2023-03-23T05:32:05.823Z, 43.65
2023-03-23T05:33:05.932Z, 43.55
2023-03-23T05:34:05.864Z, 43.46
2023-03-23T05:35:05.854Z, 43.33
2023-03-23T05:36:05.938Z, 48.94
2023-03-23T05:37:11.096Z, 54.79
2023-03-23T05:38:05.928Z, 56.93
2023-03-23T05:39:05.946Z, 59.54
2023-03-23T05:40:05.919Z, 67.78
2023-03-23T05:41:05.945Z, 57.48
2023-03-23T05:42:05.938Z, 53.39
2023-03-23T05:43:06.032Z, 54.13
2023-03-23T05:44:06.005Z, 55.94
2023-03-23T05:45:06.000Z, 59.03
2023-03-23T05:46:05.988Z, 68.67
2023-03-23T05:47:05.991Z, 61.90
2023-03-23T05:48:06.004Z, 54.75
2023-03-23T05:49:06.039Z, 54.66
2023-03-23T05:50:06.027Z, 56.01
2023-03-23T05:51:06.060Z, 58.40
2023-03-23T05:52:06.041Z, 63.69
2023-03-23T05:53:06.042Z, 66.35
2023-03-23T05:54:06.143Z, 55.72
2023-03-23T05:55:06.108Z, 54.60
2023-03-23T05:56:06.165Z, 55.28
2023-03-23T05:57:06.132Z, 55.72
2023-03-23T05:58:06.143Z, 56.24
2023-03-23T05:59:06.151Z, 56.77
2023-03-23T06:00:06.142Z, 55.62
2023-03-23T06:01:06.217Z, 54.52
2023-03-23T06:02:06.205Z, 53.65
2023-03-23T06:03:06.276Z, 52.90
2023-03-23T06:04:06.231Z, 52.28
2023-03-23T06:05:06.202Z, 52.04
2023-03-23T06:06:06.208Z, 51.66
2023-03-23T06:07:06.211Z, 51.19
2023-03-23T06:08:06.242Z, 50.90
2023-03-23T06:09:07.276Z, 50.59
2023-03-23T06:10:06.235Z, 50.32
2023-03-23T06:11:06.249Z, 50.10
2023-03-23T06:12:06.330Z, 49.86
2023-03-23T06:13:06.324Z, 49.69
2023-03-23T06:14:06.335Z, 49.46
2023-03-23T06:15:06.306Z, 49.27
2023-03-23T06:16:06.351Z, 49.08
2023-03-23T06:17:06.312Z, 48.79
2023-03-23T06:18:06.320Z, 48.72
2023-03-23T06:19:06.374Z, 48.66
2023-03-23T06:20:06.312Z, 48.41
2023-03-23T06:21:06.563Z, 48.15
2023-03-23T06:22:06.322Z, 47.96
2023-03-23T06:23:06.392Z, 47.76
2023-03-23T06:24:06.382Z, 47.58
2023-03-23T06:25:06.391Z, 47.43
2023-03-23T06:26:06.379Z, 47.27
2023-03-23T06:27:07.128Z, 47.14
2023-03-23T06:28:06.381Z, 46.98
2023-03-23T06:29:06.410Z, 46.85
2023-03-23T06:30:06.434Z, 46.72
2023-03-23T06:31:06.421Z, 46.62
2023-03-23T06:32:06.504Z, 46.47
2023-03-23T06:33:06.494Z, 46.39
2023-03-23T06:34:06.502Z, 46.24
2023-03-23T06:35:06.480Z, 46.17
2023-03-23T06:36:06.518Z, 46.06
2023-03-23T06:37:06.569Z, 45.95
2023-03-23T06:38:07.524Z, 45.84
2023-03-23T06:39:06.584Z, 45.74
2023-03-23T06:40:06.566Z, 45.66
2023-03-23T06:41:06.546Z, 45.58
2023-03-23T06:42:06.594Z, 45.46
2023-03-23T06:43:06.560Z, 45.38
2023-03-23T06:44:06.583Z, 45.29
2023-03-23T06:45:06.596Z, 45.23
2023-03-23T06:46:06.669Z, 45.21
2023-03-23T06:47:06.655Z, 45.15
2023-03-23T06:48:06.776Z, 45.06
2023-03-23T06:49:06.721Z, 44.95
2023-03-23T06:50:06.746Z, 44.93
2023-03-23T06:51:06.713Z, 44.87
2023-03-23T06:52:06.766Z, 44.77
2023-03-23T06:53:06.755Z, 44.70
2023-03-23T06:54:06.808Z, 44.63
2023-03-23T06:55:06.777Z, 44.63
2023-03-23T06:56:06.813Z, 44.57
2023-03-23T06:57:06.798Z, 44.52
2023-03-23T06:58:06.845Z, 44.44
2023-03-23T06:59:06.839Z, 44.43
2023-03-23T07:00:08.308Z, 44.37
2023-03-23T07:01:06.827Z, 44.33
2023-03-23T07:02:06.827Z, 44.29
2023-03-23T07:03:06.895Z, 44.24
2023-03-23T07:04:06.879Z, 44.19
2023-03-23T07:05:06.915Z, 44.23
2023-03-23T07:06:07.102Z, 44.18
2023-03-23T07:07:06.943Z, 44.18
2023-03-23T07:08:06.904Z, 44.15
2023-03-23T07:09:06.919Z, 44.12
2023-03-23T07:10:06.925Z, 44.00
2023-03-23T07:11:06.920Z, 43.95
2023-03-23T07:12:06.997Z, 43.97
2023-03-23T07:13:06.960Z, 44.02
2023-03-23T07:14:07.040Z, 43.96
2023-03-23T07:15:07.012Z, 43.93
2023-03-23T07:16:07.085Z, 43.81
2023-03-23T07:17:07.041Z, 43.79
2023-03-23T07:18:07.043Z, 43.82
2023-03-23T07:19:07.044Z, 43.76
2023-03-23T07:20:07.053Z, 43.74
2023-03-23T07:21:07.054Z, 43.74
2023-03-23T07:22:07.063Z, 43.74
2023-03-23T07:23:07.067Z, 43.68
2023-03-23T07:24:07.084Z, 43.65
2023-03-23T07:25:07.168Z, 43.65
2023-03-23T07:26:07.148Z, 43.54
2023-03-23T07:27:07.197Z, 43.53
2023-03-23T07:28:07.174Z, 43.46
2023-03-23T07:29:07.179Z, 43.48
2023-03-23T07:30:07.177Z, 43.47
2023-03-23T07:31:07.172Z, 43.44
2023-03-23T07:32:07.173Z, 43.39
2023-03-23T07:33:07.185Z, 43.36
2023-03-23T07:34:07.318Z, 43.38
2023-03-23T07:35:07.745Z, 43.38
2023-03-23T07:36:07.336Z, 43.36
2023-03-23T07:37:07.252Z, 43.36
2023-03-23T07:38:07.330Z, 43.35
2023-03-23T07:39:07.305Z, 43.28
2023-03-23T07:40:07.348Z, 43.24
2023-03-23T07:41:07.312Z, 43.26
2023-03-23T07:42:07.308Z, 43.20
2023-03-23T07:43:07.330Z, 43.22
2023-03-23T07:44:07.362Z, 43.17
2023-03-23T07:45:07.362Z, 43.13
2023-03-23T07:46:07.347Z, 43.14
2023-03-23T07:47:07.372Z, 43.08
2023-03-23T07:48:15.822Z, 43.12
2023-03-23T07:49:07.475Z, 43.12
2023-03-23T07:50:07.446Z, 43.11
2023-03-23T07:51:07.443Z, 42.99
2023-03-23T07:52:07.448Z, 42.97
2023-03-23T07:53:07.444Z, 42.92
2023-03-23T07:54:07.457Z, 42.86
2023-03-23T07:55:07.463Z, 42.89
2023-03-23T07:56:07.472Z, 42.89
2023-03-23T07:57:07.506Z, 42.85
2023-03-23T07:58:07.565Z, 42.79
2023-03-23T07:59:07.590Z, 42.82
2023-03-23T08:00:07.612Z, 42.81
2023-03-23T08:01:07.863Z, 42.76
2023-03-23T08:02:07.596Z, 42.79
2023-03-23T08:03:07.594Z, 42.76
2023-03-23T08:04:07.597Z, 42.70
2023-03-23T08:05:07.598Z, 42.69
2023-03-23T08:06:07.604Z, 42.68
2023-03-23T08:07:07.679Z, 42.62
2023-03-23T08:08:07.667Z, 42.58
2023-03-23T08:09:07.688Z, 42.56
2023-03-23T08:10:07.674Z, 42.58
2023-03-23T08:11:07.702Z, 42.56
2023-03-23T08:12:07.694Z, 42.59
2023-03-23T08:13:07.710Z, 42.55
2023-03-23T08:14:07.712Z, 42.54
2023-03-23T08:15:07.701Z, 42.46
2023-03-23T08:16:07.811Z, 42.56
2023-03-23T08:17:07.778Z, 42.58
2023-03-23T08:18:07.826Z, 42.51
2023-03-23T08:19:08.838Z, 42.52
2023-03-23T08:20:07.789Z, 42.50
2023-03-23T08:21:07.792Z, 42.45
2023-03-23T08:22:07.799Z, 42.43
2023-03-23T08:23:07.839Z, 42.40
2023-03-23T08:24:07.828Z, 42.40
2023-03-23T08:25:07.894Z, 42.35
2023-03-23T08:26:07.863Z, 42.29
2023-03-23T08:27:07.911Z, 42.31
2023-03-23T08:28:07.934Z, 42.28
2023-03-23T08:29:07.900Z, 42.26
2023-03-23T08:30:07.908Z, 42.19
2023-03-23T08:31:07.914Z, 42.17
2023-03-23T08:32:07.990Z, 42.16
2023-03-23T08:33:07.937Z, 42.13
2023-03-23T08:34:08.025Z, 42.10
2023-03-23T08:35:08.006Z, 42.15
2023-03-23T08:36:08.107Z, 42.16
2023-03-23T08:37:08.030Z, 42.12
2023-03-23T08:38:08.086Z, 42.18
2023-03-23T08:39:08.059Z, 42.13
2023-03-23T08:40:08.088Z, 42.07
2023-03-23T08:41:08.050Z, 42.13
2023-03-23T08:42:08.055Z, 42.15
2023-03-23T08:43:08.069Z, 42.13
2023-03-23T08:44:08.079Z, 42.13
2023-03-23T08:45:08.163Z, 42.12
2023-03-23T08:46:08.115Z, 42.08
2023-03-23T08:47:08.182Z, 42.08
2023-03-23T08:48:08.166Z, 42.05
2023-03-23T08:49:08.185Z, 42.07
2023-03-23T08:50:08.209Z, 42.07
2023-03-23T08:51:08.181Z, 42.03
2023-03-23T08:52:08.186Z, 42.00
2023-03-23T08:53:08.175Z, 41.97
2023-03-23T08:54:08.253Z, 41.94
2023-03-23T08:55:08.242Z, 41.92
2023-03-23T08:56:08.278Z, 41.94
2023-03-23T08:57:08.284Z, 41.94
2023-03-23T08:58:08.287Z, 41.86
2023-03-23T08:59:08.276Z, 41.80
2023-03-23T09:00:08.288Z, 41.76
2023-03-23T09:01:08.290Z, 41.75
2023-03-23T09:02:08.357Z, 41.77
2023-03-23T09:03:08.338Z, 41.74
2023-03-23T09:04:08.342Z, 41.72
2023-03-23T09:05:08.419Z, 41.70
2023-03-23T09:06:08.399Z, 41.69
2023-03-23T09:07:08.433Z, 41.76
2023-03-23T09:08:08.414Z, 41.78
2023-03-23T09:09:08.448Z, 41.75
2023-03-23T09:10:08.428Z, 41.77
2023-03-23T09:11:08.448Z, 41.70
2023-03-23T09:12:08.443Z, 41.67
2023-03-23T09:13:08.457Z, 41.70
2023-03-23T09:14:08.457Z, 41.63
2023-03-23T09:15:08.471Z, 41.62
2023-03-23T09:16:08.481Z, 41.64
2023-03-23T09:17:08.485Z, 41.55
2023-03-23T09:18:08.542Z, 41.56
2023-03-23T09:19:08.517Z, 41.55
2023-03-23T09:20:08.604Z, 41.56
2023-03-23T09:21:08.585Z, 41.55
2023-03-23T09:22:08.580Z, 41.56
2023-03-23T09:23:08.576Z, 41.49
2023-03-23T09:24:08.594Z, 41.47
2023-03-23T09:25:09.241Z, 41.53
2023-03-23T09:26:08.654Z, 41.51
2023-03-23T09:27:09.732Z, 41.50
2023-03-23T09:28:08.680Z, 41.50
2023-03-23T09:29:08.699Z, 41.45
2023-03-23T09:30:08.692Z, 41.46
2023-03-23T09:31:08.779Z, 41.43
2023-03-23T09:32:08.742Z, 41.40
2023-03-23T09:33:08.734Z, 41.34
2023-03-23T09:34:08.741Z, 41.33
2023-03-23T09:35:08.807Z, 41.32
2023-03-23T09:36:08.799Z, 41.34
2023-03-23T09:37:08.776Z, 41.29
2023-03-23T09:38:08.924Z, 41.27
2023-03-23T09:39:08.855Z, 41.21
2023-03-23T09:40:08.907Z, 41.22
2023-03-23T09:41:08.861Z, 41.20
2023-03-23T09:42:08.870Z, 41.19
2023-03-23T09:43:08.861Z, 41.16
2023-03-23T09:44:08.866Z, 41.16
2023-03-23T09:45:08.896Z, 41.19
2023-03-23T09:46:08.861Z, 41.14
2023-03-23T09:47:08.934Z, 41.18
2023-03-23T09:48:08.918Z, 41.15
2023-03-23T09:49:08.982Z, 41.11
2023-03-23T09:50:08.958Z, 41.14
2023-03-23T09:51:08.990Z, 41.15
2023-03-23T09:52:08.991Z, 41.13
2023-03-23T09:53:08.998Z, 41.17
2023-03-23T09:54:08.983Z, 41.09
2023-03-23T09:55:08.995Z, 41.07
2023-03-23T09:56:09.003Z, 40.99
2023-03-23T09:57:09.035Z, 41.00
2023-03-23T09:58:09.028Z, 41.03
2023-03-23T09:59:09.034Z, 40.96
2023-03-23T10:00:09.047Z, 40.93
2023-03-23T10:01:09.084Z, 40.95
2023-03-23T10:02:09.134Z, 40.95
2023-03-23T10:03:09.092Z, 40.99
2023-03-23T10:04:09.153Z, 40.95
2023-03-23T10:05:09.145Z, 40.87
2023-03-23T10:06:09.173Z, 40.87
2023-03-23T10:07:09.157Z, 40.91
2023-03-23T10:08:09.210Z, 40.89
2023-03-23T10:09:09.177Z, 40.84
2023-03-23T10:10:09.209Z, 40.88
2023-03-23T10:11:09.201Z, 40.87
2023-03-23T10:12:09.192Z, 40.81
2023-03-23T10:13:09.197Z, 40.80
2023-03-23T10:14:09.256Z, 40.83
2023-03-23T10:15:09.244Z, 40.82
2023-03-23T10:16:09.277Z, 40.83
2023-03-23T10:17:10.773Z, 40.78
2023-03-23T10:18:09.285Z, 40.68
2023-03-23T10:19:09.307Z, 40.64
2023-03-23T10:20:09.302Z, 40.63
2023-03-23T10:21:09.498Z, 40.59
2023-03-23T10:22:09.319Z, 40.69
2023-03-23T10:23:09.346Z, 40.72
2023-03-23T10:24:09.357Z, 40.74
2023-03-23T10:25:09.425Z, 40.72
2023-03-23T10:26:09.411Z, 40.64
2023-03-23T10:27:09.411Z, 40.67
2023-03-23T10:28:09.458Z, 40.68
2023-03-23T10:29:09.416Z, 40.65
2023-03-23T10:30:09.494Z, 40.65
2023-03-23T10:31:09.501Z, 40.66
2023-03-23T10:32:09.523Z, 40.66
2023-03-23T10:33:09.487Z, 40.59
2023-03-23T10:34:09.520Z, 40.59
2023-03-23T10:35:09.503Z, 40.53
2023-03-23T10:36:09.528Z, 40.59
2023-03-23T10:37:09.543Z, 40.58
2023-03-23T10:38:09.529Z, 40.53
2023-03-23T10:39:09.608Z, 40.52
2023-03-23T10:40:09.560Z, 40.57
2023-03-23T10:41:09.575Z, 40.50
2023-03-23T10:42:09.576Z, 40.50
2023-03-23T10:43:09.579Z, 40.47
2023-03-23T10:44:09.607Z, 40.45
2023-03-23T10:45:09.607Z, 40.44
2023-03-23T10:46:09.643Z, 40.43
2023-03-23T10:47:09.634Z, 40.39
2023-03-23T10:48:09.648Z, 40.42
2023-03-23T10:49:09.643Z, 40.41
2023-03-23T10:50:09.684Z, 40.40
2023-03-23T10:51:09.692Z, 40.41
2023-03-23T10:52:09.752Z, 40.41
2023-03-23T10:53:09.762Z, 40.36
2023-03-23T10:54:11.078Z, 40.34
2023-03-23T10:55:09.767Z, 40.34
2023-03-23T10:56:09.754Z, 40.38
2023-03-23T10:57:09.784Z, 40.29
2023-03-23T10:58:09.758Z, 40.29
2023-03-23T10:59:09.834Z, 40.34
2023-03-23T11:00:09.826Z, 40.37
2023-03-23T11:01:09.819Z, 40.55
2023-03-23T11:02:13.628Z, 41.86
2023-03-23T11:03:09.824Z, 42.50
2023-03-23T11:04:09.825Z, 42.59
2023-03-23T11:05:11.956Z, 42.81
2023-03-23T11:06:09.844Z, 42.84
2023-03-23T11:07:09.856Z, 42.83
2023-03-23T11:08:09.881Z, 42.77
2023-03-23T11:09:09.910Z, 42.75
2023-03-23T11:10:09.981Z, 42.70
2023-03-23T11:11:09.952Z, 42.68
2023-03-23T11:12:10.000Z, 42.69
2023-03-23T11:13:09.980Z, 42.67
2023-03-23T11:14:10.031Z, 42.69
2023-03-23T11:15:09.991Z, 42.66
2023-03-23T11:16:09.996Z, 42.64
2023-03-23T11:17:15.869Z, 42.61
2023-03-23T11:18:09.999Z, 42.58
2023-03-23T11:19:10.087Z, 42.58
2023-03-23T11:20:10.051Z, 42.56
2023-03-23T11:21:10.085Z, 42.51
2023-03-23T11:22:10.076Z, 42.46
2023-03-23T11:23:10.070Z, 42.47
2023-03-23T11:24:10.336Z, 42.44
2023-03-23T11:25:10.078Z, 42.39
2023-03-23T11:26:10.095Z, 42.39
2023-03-23T11:27:10.099Z, 42.36
2023-03-23T11:28:10.103Z, 42.31
2023-03-23T11:29:10.125Z, 42.28
2023-03-23T11:30:10.137Z, 42.25
2023-03-23T11:31:10.153Z, 42.15
2023-03-23T11:32:10.220Z, 41.90
2023-03-23T11:33:10.197Z, 41.77
2023-03-23T11:34:10.200Z, 41.68
2023-03-23T11:35:16.202Z, 41.45
2023-03-23T11:36:10.266Z, 41.21
2023-03-23T11:37:10.232Z, 41.04
2023-03-23T11:38:10.244Z, 40.89
2023-03-23T11:39:10.317Z, 40.82
2023-03-23T11:40:10.284Z, 40.69
2023-03-23T11:41:10.320Z, 40.63
2023-03-23T11:42:10.302Z, 40.53
2023-03-23T11:43:10.302Z, 40.45
2023-03-23T11:44:10.319Z, 40.41
2023-03-23T11:45:10.326Z, 40.38
2023-03-23T11:46:10.361Z, 40.31
2023-03-23T11:47:10.361Z, 40.31
2023-03-23T11:48:10.425Z, 40.24
2023-03-23T11:49:23.240Z, 40.20
2023-03-23T11:50:10.440Z, 40.16
2023-03-23T11:51:10.411Z, 40.12
2023-03-23T11:52:10.610Z, 40.00
2023-03-23T11:53:10.458Z, 40.00
2023-03-23T11:54:10.492Z, 39.95
2023-03-23T11:55:10.495Z, 39.90
2023-03-23T11:56:10.552Z, 39.89
2023-03-23T11:57:10.497Z, 39.85
2023-03-23T11:58:10.484Z, 39.79
2023-03-23T11:59:10.500Z, 39.77
2023-03-23T12:00:10.511Z, 39.82
2023-03-23T12:01:10.536Z, 39.81
2023-03-23T12:03:10.614Z, 39.72
2023-03-23T12:04:10.580Z, 39.71
2023-03-23T12:05:10.632Z, 39.64
2023-03-23T12:06:10.596Z, 39.61
2023-03-23T12:07:10.655Z, 39.62
2023-03-23T12:08:10.616Z, 39.55
2023-03-23T12:09:10.614Z, 39.52
2023-03-23T12:10:10.625Z, 39.51
2023-03-23T12:11:10.628Z, 39.51
2023-03-23T12:12:10.693Z, 39.50
2023-03-23T12:13:13.846Z, 39.48
2023-03-23T12:14:10.719Z, 39.50
2023-03-23T12:15:10.708Z, 39.51
2023-03-23T12:16:10.752Z, 39.53
2023-03-23T12:17:10.724Z, 39.43
2023-03-23T12:18:10.749Z, 39.41
2023-03-23T12:19:10.731Z, 39.39
2023-03-23T12:20:10.736Z, 39.36
2023-03-23T12:21:10.788Z, 39.33
2023-03-23T12:22:10.763Z, 39.39
2023-03-23T12:23:10.800Z, 39.35
2023-03-23T12:24:10.775Z, 39.35
2023-03-23T12:25:10.857Z, 39.28
2023-03-23T12:26:10.827Z, 39.25
2023-03-23T12:27:10.830Z, 39.25
2023-03-23T12:28:10.839Z, 39.22
2023-03-23T12:29:10.846Z, 39.23